sensor_id;sensor_type;location;lat;lon;timestamp;P1;durP1;ratioP1;P2;durP2;ratioP2
9761;SDS011;4920;49.594;11.022;2023-03-25T00:01:56;1.40;;;1.00;;
9761;SDS011;4920;49.594;11.022;2023-03-25T00:04:24;2.20;;;1.10;;
9761;SDS011;4920;49.594;11.022;2023-03-25T00:06:53;3.53;;;1.17;;
9761;SDS011;4920;49.594;11.022;2023-03-25T00:09:22;1.93;;;1.10;;
9761;SDS011;4920;49.594;11.022;2023-03-25T00:11:51;1.93;;;1.00;;
9761;SDS011;4920;49.594;11.022;2023-03-25T00:14:20;2.07;;;1.20;;
9761;SDS011;4920;49.594;11.022;2023-03-25T00:16:52;2.17;;;1.10;;
9761;SDS011;4920;49.594;11.022;2023-03-25T00:19:20;2.30;;;1.10;;
9761;SDS011;4920;49.594;11.022;2023-03-25T00:21:51;1.63;;;1.10;;
9761;SDS011;4920;49.594;11.022;2023-03-25T00:24:20;3.00;;;1.07;;
9761;SDS011;4920;49.594;11.022;2023-03-25T00:26:49;1.10;;;1.00;;
9761;SDS011;4920;49.594;11.022;2023-03-25T00:29:17;2.00;;;1.07;;
9761;SDS011;4920;49.594;11.022;2023-03-25T00:31:47;1.80;;;1.10;;
9761;SDS011;4920;49.594;11.022;2023-03-25T00:34:17;1.47;;;1.10;;
9761;SDS011;4920;49.594;11.022;2023-03-25T00:36:45;1.43;;;1.10;;
9761;SDS011;4920;49.594;11.022;2023-03-25T00:39:14;4.77;;;1.30;;
9761;SDS011;4920;49.594;11.022;2023-03-25T00:41:43;1.93;;;1.10;;
9761;SDS011;4920;49.594;11.022;2023-03-25T00:44:14;1.80;;;1.23;;
9761;SDS011;4920;49.594;11.022;2023-03-25T00:46:42;2.90;;;1.20;;
9761;SDS011;4920;49.594;11.022;2023-03-25T00:49:11;2.50;;;1.43;;
9761;SDS011;4920;49.594;11.022;2023-03-25T00:51:42;2.93;;;1.50;;
9761;SDS011;4920;49.594;11.022;2023-03-25T00:54:19;3.50;;;1.53;;
9761;SDS011;4920;49.594;11.022;2023-03-25T00:56:49;1.57;;;1.20;;
9761;SDS011;4920;49.594;11.022;2023-03-25T00:59:19;2.97;;;1.40;;
9761;SDS011;4920;49.594;11.022;2023-03-25T01:01:48;3.23;;;1.60;;
9761;SDS011;4920;49.594;11.022;2023-03-25T01:04:19;7.20;;;1.90;;
9761;SDS011;4920;49.594;11.022;2023-03-25T01:06:49;2.47;;;1.67;;
9761;SDS011;4920;49.594;11.022;2023-03-25T01:09:19;3.87;;;2.00;;
9761;SDS011;4920;49.594;11.022;2023-03-25T01:11:48;4.27;;;2.40;;
9761;SDS011;4920;49.594;11.022;2023-03-25T01:14:18;3.93;;;2.00;;
9761;SDS011;4920;49.594;11.022;2023-03-25T01:16:49;4.20;;;2.17;;
9761;SDS011;4920;49.594;11.022;2023-03-25T01:19:18;3.67;;;2.10;;
9761;SDS011;4920;49.594;11.022;2023-03-25T01:21:47;4.67;;;2.20;;
9761;SDS011;4920;49.594;11.022;2023-03-25T01:24:18;5.23;;;2.33;;
9761;SDS011;4920;49.594;11.022;2023-03-25T01:26:46;6.17;;;2.40;;
9761;SDS011;4920;49.594;11.022;2023-03-25T01:29:20;3.67;;;2.30;;
9761;SDS011;4920;49.594;11.022;2023-03-25T01:31:49;6.87;;;2.50;;
9761;SDS011;4920;49.594;11.022;2023-03-25T01:34:19;2.53;;;2.17;;
9761;SDS011;4920;49.594;11.022;2023-03-25T01:36:50;4.63;;;2.37;;
9761;SDS011;4920;49.594;11.022;2023-03-25T01:39:21;5.73;;;2.53;;
9761;SDS011;4920;49.594;11.022;2023-03-25T01:41:50;4.40;;;2.27;;
9761;SDS011;4920;49.594;11.022;2023-03-25T01:47:27;5.20;;;2.10;;
9761;SDS011;4920;49.594;11.022;2023-03-25T01:49:56;5.40;;;2.37;;
9761;SDS011;4920;49.594;11.022;2023-03-25T01:52:27;4.40;;;2.13;;
9761;SDS011;4920;49.594;11.022;2023-03-25T01:54:57;4.13;;;2.30;;
9761;SDS011;4920;49.594;11.022;2023-03-25T01:57:27;3.37;;;1.80;;
9761;SDS011;4920;49.594;11.022;2023-03-25T01:59:57;5.53;;;1.90;;
9761;SDS011;4920;49.594;11.022;2023-03-25T02:02:26;2.93;;;1.80;;
9761;SDS011;4920;49.594;11.022;2023-03-25T02:05:01;3.97;;;2.00;;
9761;SDS011;4920;49.594;11.022;2023-03-25T02:07:39;3.90;;;2.00;;
9761;SDS011;4920;49.594;11.022;2023-03-25T02:10:13;2.13;;;1.83;;
9761;SDS011;4920;49.594;11.022;2023-03-25T02:12:43;4.60;;;1.77;;
9761;SDS011;4920;49.594;11.022;2023-03-25T02:15:13;2.97;;;1.67;;
9761;SDS011;4920;49.594;11.022;2023-03-25T02:17:51;3.80;;;1.80;;
9761;SDS011;4920;49.594;11.022;2023-03-25T02:23:47;3.40;;;1.70;;
9761;SDS011;4920;49.594;11.022;2023-03-25T02:26:45;6.10;;;1.70;;
9761;SDS011;4920;49.594;11.022;2023-03-25T02:29:44;2.30;;;1.30;;
9761;SDS011;4920;49.594;11.022;2023-03-25T02:32:24;2.83;;;1.50;;
9761;SDS011;4920;49.594;11.022;2023-03-25T02:35:18;2.97;;;1.40;;
9761;SDS011;4920;49.594;11.022;2023-03-25T02:40:51;3.23;;;1.57;;
9761;SDS011;4920;49.594;11.022;2023-03-25T02:43:26;3.63;;;1.50;;
9761;SDS011;4920;49.594;11.022;2023-03-25T02:46:00;6.40;;;1.40;;
9761;SDS011;4920;49.594;11.022;2023-03-25T02:48:35;3.63;;;1.20;;
9761;SDS011;4920;49.594;11.022;2023-03-25T02:51:08;4.87;;;1.40;;
9761;SDS011;4920;49.594;11.022;2023-03-25T02:53:45;3.20;;;1.10;;
9761;SDS011;4920;49.594;11.022;2023-03-25T02:56:16;5.30;;;1.30;;
9761;SDS011;4920;49.594;11.022;2023-03-25T02:58:49;4.80;;;1.43;;
9761;SDS011;4920;49.594;11.022;2023-03-25T03:01:21;4.43;;;1.30;;
9761;SDS011;4920;49.594;11.022;2023-03-25T03:03:53;2.20;;;1.13;;
9761;SDS011;4920;49.594;11.022;2023-03-25T03:06:24;2.93;;;1.13;;
9761;SDS011;4920;49.594;11.022;2023-03-25T03:09:00;2.80;;;1.10;;
9761;SDS011;4920;49.594;11.022;2023-03-25T03:11:42;5.07;;;1.07;;
9761;SDS011;4920;49.594;11.022;2023-03-25T03:14:22;4.33;;;1.00;;
9761;SDS011;4920;49.594;11.022;2023-03-25T03:17:02;6.47;;;1.27;;
9761;SDS011;4920;49.594;11.022;2023-03-25T03:19:37;5.63;;;1.37;;
9761;SDS011;4920;49.594;11.022;2023-03-25T03:22:14;3.53;;;1.03;;
9761;SDS011;4920;49.594;11.022;2023-03-25T03:24:55;4.17;;;1.30;;
9761;SDS011;4920;49.594;11.022;2023-03-25T03:27:31;4.77;;;1.40;;
9761;SDS011;4920;49.594;11.022;2023-03-25T03:30:03;4.03;;;1.13;;
9761;SDS011;4920;49.594;11.022;2023-03-25T03:32:38;3.77;;;1.30;;
9761;SDS011;4920;49.594;11.022;2023-03-25T03:35:12;4.87;;;1.23;;
9761;SDS011;4920;49.594;11.022;2023-03-25T03:37:47;4.03;;;1.30;;
9761;SDS011;4920;49.594;11.022;2023-03-25T03:40:21;4.70;;;1.20;;
9761;SDS011;4920;49.594;11.022;2023-03-25T03:42:52;4.00;;;1.20;;
9761;SDS011;4920;49.594;11.022;2023-03-25T03:45:25;4.87;;;1.10;;
9761;SDS011;4920;49.594;11.022;2023-03-25T03:47:58;5.17;;;1.17;;
9761;SDS011;4920;49.594;11.022;2023-03-25T03:50:30;2.23;;;1.00;;
9761;SDS011;4920;49.594;11.022;2023-03-25T03:53:05;3.13;;;1.40;;
9761;SDS011;4920;49.594;11.022;2023-03-25T03:55:38;2.60;;;1.10;;
9761;SDS011;4920;49.594;11.022;2023-03-25T03:58:10;5.97;;;1.30;;
9761;SDS011;4920;49.594;11.022;2023-03-25T04:00:42;4.20;;;1.20;;
9761;SDS011;4920;49.594;11.022;2023-03-25T04:03:17;3.00;;;1.20;;
9761;SDS011;4920;49.594;11.022;2023-03-25T04:05:52;3.07;;;0.90;;
9761;SDS011;4920;49.594;11.022;2023-03-25T04:08:26;3.07;;;1.13;;
9761;SDS011;4920;49.594;11.022;2023-03-25T04:11:01;4.37;;;0.97;;
9761;SDS011;4920;49.594;11.022;2023-03-25T04:13:36;4.33;;;1.20;;
9761;SDS011;4920;49.594;11.022;2023-03-25T04:16:08;6.00;;;1.17;;
9761;SDS011;4920;49.594;11.022;2023-03-25T04:18:38;4.37;;;1.10;;
9761;SDS011;4920;49.594;11.022;2023-03-25T04:21:09;3.83;;;1.37;;
9761;SDS011;4920;49.594;11.022;2023-03-25T04:23:41;2.90;;;1.03;;
9761;SDS011;4920;49.594;11.022;2023-03-25T04:26:13;3.67;;;1.00;;
9761;SDS011;4920;49.594;11.022;2023-03-25T04:28:42;5.07;;;1.10;;
9761;SDS011;4920;49.594;11.022;2023-03-25T04:31:12;2.73;;;1.00;;
9761;SDS011;4920;49.594;11.022;2023-03-25T04:33:42;5.43;;;1.10;;
9761;SDS011;4920;49.594;11.022;2023-03-25T04:36:14;2.17;;;1.00;;
9761;SDS011;4920;49.594;11.022;2023-03-25T04:38:43;6.27;;;1.10;;
9761;SDS011;4920;49.594;11.022;2023-03-25T04:41:14;3.13;;;0.93;;
9761;SDS011;4920;49.594;11.022;2023-03-25T04:43:43;2.80;;;1.00;;
9761;SDS011;4920;49.594;11.022;2023-03-25T04:46:12;2.20;;;0.90;;
9761;SDS011;4920;49.594;11.022;2023-03-25T04:48:42;3.10;;;0.97;;
9761;SDS011;4920;49.594;11.022;2023-03-25T04:51:12;1.60;;;0.83;;
9761;SDS011;4920;49.594;11.022;2023-03-25T04:53:41;1.43;;;1.00;;
9761;SDS011;4920;49.594;11.022;2023-03-25T04:56:11;3.60;;;1.10;;
9761;SDS011;4920;49.594;11.022;2023-03-25T04:58:44;2.60;;;1.00;;
9761;SDS011;4920;49.594;11.022;2023-03-25T05:01:15;2.90;;;1.00;;
9761;SDS011;4920;49.594;11.022;2023-03-25T05:03:49;2.67;;;0.80;;
9761;SDS011;4920;49.594;11.022;2023-03-25T05:06:17;3.67;;;0.87;;
9761;SDS011;4920;49.594;11.022;2023-03-25T05:08:47;1.40;;;0.70;;
9761;SDS011;4920;49.594;11.022;2023-03-25T05:11:15;1.50;;;0.90;;
9761;SDS011;4920;49.594;11.022;2023-03-25T05:13:45;3.20;;;1.07;;
9761;SDS011;4920;49.594;11.022;2023-03-25T05:16:15;1.40;;;1.00;;
9761;SDS011;4920;49.594;11.022;2023-03-25T05:18:44;4.70;;;1.07;;
9761;SDS011;4920;49.594;11.022;2023-03-25T05:21:13;2.53;;;0.90;;
9761;SDS011;4920;49.594;11.022;2023-03-25T05:23:42;1.97;;;0.70;;
9761;SDS011;4920;49.594;11.022;2023-03-25T05:26:11;1.90;;;0.90;;
9761;SDS011;4920;49.594;11.022;2023-03-25T05:28:40;5.07;;;1.10;;
9761;SDS011;4920;49.594;11.022;2023-03-25T05:31:10;2.67;;;0.90;;
9761;SDS011;4920;49.594;11.022;2023-03-25T05:33:38;1.73;;;1.00;;
9761;SDS011;4920;49.594;11.022;2023-03-25T05:36:09;2.17;;;0.80;;
9761;SDS011;4920;49.594;11.022;2023-03-25T05:38:39;2.23;;;1.00;;
9761;SDS011;4920;49.594;11.022;2023-03-25T05:41:09;3.13;;;1.00;;
9761;SDS011;4920;49.594;11.022;2023-03-25T05:43:42;1.67;;;0.90;;
9761;SDS011;4920;49.594;11.022;2023-03-25T05:46:15;1.57;;;0.90;;
9761;SDS011;4920;49.594;11.022;2023-03-25T05:51:43;3.67;;;0.90;;
9761;SDS011;4920;49.594;11.022;2023-03-25T05:54:15;4.10;;;1.20;;
9761;SDS011;4920;49.594;11.022;2023-03-25T05:56:43;1.97;;;0.87;;
9761;SDS011;4920;49.594;11.022;2023-03-25T05:59:12;3.53;;;1.00;;
9761;SDS011;4920;49.594;11.022;2023-03-25T06:01:43;3.77;;;0.90;;
9761;SDS011;4920;49.594;11.022;2023-03-25T06:04:12;4.00;;;1.20;;
9761;SDS011;4920;49.594;11.022;2023-03-25T06:06:42;2.33;;;1.00;;
9761;SDS011;4920;49.594;11.022;2023-03-25T06:09:11;5.17;;;1.20;;
9761;SDS011;4920;49.594;11.022;2023-03-25T06:11:40;3.97;;;1.20;;
9761;SDS011;4920;49.594;11.022;2023-03-25T06:14:08;2.87;;;1.00;;
9761;SDS011;4920;49.594;11.022;2023-03-25T06:16:37;3.27;;;1.03;;
9761;SDS011;4920;49.594;11.022;2023-03-25T06:19:07;3.27;;;1.17;;
9761;SDS011;4920;49.594;11.022;2023-03-25T06:21:36;3.83;;;1.13;;
9761;SDS011;4920;49.594;11.022;2023-03-25T06:24:05;3.43;;;1.00;;
9761;SDS011;4920;49.594;11.022;2023-03-25T06:26:34;4.00;;;1.10;;
9761;SDS011;4920;49.594;11.022;2023-03-25T06:29:05;3.23;;;1.10;;
9761;SDS011;4920;49.594;11.022;2023-03-25T06:31:34;3.33;;;1.10;;
9761;SDS011;4920;49.594;11.022;2023-03-25T06:34:03;2.10;;;1.00;;
9761;SDS011;4920;49.594;11.022;2023-03-25T06:36:33;2.53;;;1.00;;
9761;SDS011;4920;49.594;11.022;2023-03-25T06:39:08;1.83;;;0.90;;
9761;SDS011;4920;49.594;11.022;2023-03-25T06:41:37;2.53;;;0.97;;
9761;SDS011;4920;49.594;11.022;2023-03-25T06:44:24;3.50;;;1.20;;
9761;SDS011;4920;49.594;11.022;2023-03-25T06:47:11;2.53;;;1.13;;
9761;SDS011;4920;49.594;11.022;2023-03-25T06:49:47;5.93;;;1.20;;
9761;SDS011;4920;49.594;11.022;2023-03-25T06:52:18;3.30;;;1.10;;
9761;SDS011;4920;49.594;11.022;2023-03-25T06:54:49;2.40;;;1.00;;
9761;SDS011;4920;49.594;11.022;2023-03-25T06:57:17;1.67;;;0.90;;
9761;SDS011;4920;49.594;11.022;2023-03-25T06:59:46;2.10;;;0.80;;
9761;SDS011;4920;49.594;11.022;2023-03-25T07:02:15;4.27;;;1.07;;
9761;SDS011;4920;49.594;11.022;2023-03-25T07:04:44;2.90;;;1.30;;
9761;SDS011;4920;49.594;11.022;2023-03-25T07:07:12;4.10;;;1.10;;
9761;SDS011;4920;49.594;11.022;2023-03-25T07:09:43;4.17;;;1.10;;
9761;SDS011;4920;49.594;11.022;2023-03-25T07:12:14;3.13;;;1.20;;
9761;SDS011;4920;49.594;11.022;2023-03-25T07:14:42;2.83;;;1.00;;
9761;SDS011;4920;49.594;11.022;2023-03-25T07:17:12;2.40;;;0.93;;
9761;SDS011;4920;49.594;11.022;2023-03-25T07:19:42;6.57;;;1.20;;
9761;SDS011;4920;49.594;11.022;2023-03-25T07:22:11;4.73;;;1.23;;
9761;SDS011;4920;49.594;11.022;2023-03-25T07:24:39;3.30;;;1.20;;
9761;SDS011;4920;49.594;11.022;2023-03-25T07:27:10;5.60;;;1.10;;
9761;SDS011;4920;49.594;11.022;2023-03-25T07:29:45;6.90;;;1.10;;
9761;SDS011;4920;49.594;11.022;2023-03-25T07:32:14;4.50;;;1.00;;
9761;SDS011;4920;49.594;11.022;2023-03-25T07:34:42;3.10;;;1.13;;
9761;SDS011;4920;49.594;11.022;2023-03-25T07:37:11;5.60;;;1.10;;
9761;SDS011;4920;49.594;11.022;2023-03-25T07:39:40;2.57;;;1.00;;
9761;SDS011;4920;49.594;11.022;2023-03-25T07:42:08;5.50;;;1.30;;
9761;SDS011;4920;49.594;11.022;2023-03-25T07:47:52;2.57;;;0.93;;
9761;SDS011;4920;49.594;11.022;2023-03-25T07:50:22;2.10;;;0.90;;
9761;SDS011;4920;49.594;11.022;2023-03-25T07:52:51;5.63;;;1.20;;
9761;SDS011;4920;49.594;11.022;2023-03-25T07:55:20;5.50;;;1.23;;
9761;SDS011;4920;49.594;11.022;2023-03-25T07:57:50;3.47;;;1.00;;
9761;SDS011;4920;49.594;11.022;2023-03-25T08:00:20;4.10;;;1.27;;
9761;SDS011;4920;49.594;11.022;2023-03-25T08:02:49;4.00;;;1.10;;
9761;SDS011;4920;49.594;11.022;2023-03-25T08:05:18;4.13;;;1.10;;
9761;SDS011;4920;49.594;11.022;2023-03-25T08:07:48;2.77;;;1.00;;
9761;SDS011;4920;49.594;11.022;2023-03-25T08:10:18;4.30;;;1.10;;
9761;SDS011;4920;49.594;11.022;2023-03-25T08:12:52;5.97;;;1.27;;
9761;SDS011;4920;49.594;11.022;2023-03-25T08:15:21;3.37;;;1.07;;
9761;SDS011;4920;49.594;11.022;2023-03-25T08:17:50;6.07;;;1.67;;
9761;SDS011;4920;49.594;11.022;2023-03-25T08:20:19;3.07;;;1.10;;
9761;SDS011;4920;49.594;11.022;2023-03-25T08:22:48;5.80;;;1.30;;
9761;SDS011;4920;49.594;11.022;2023-03-25T08:25:16;3.30;;;1.27;;
9761;SDS011;4920;49.594;11.022;2023-03-25T08:27:45;5.20;;;1.33;;
9761;SDS011;4920;49.594;11.022;2023-03-25T08:30:16;11.47;;;1.50;;
9761;SDS011;4920;49.594;11.022;2023-03-25T08:32:44;6.53;;;1.50;;
9761;SDS011;4920;49.594;11.022;2023-03-25T08:35:20;3.87;;;1.23;;
9761;SDS011;4920;49.594;11.022;2023-03-25T08:37:49;4.87;;;1.30;;
9761;SDS011;4920;49.594;11.022;2023-03-25T08:40:18;4.63;;;1.10;;
9761;SDS011;4920;49.594;11.022;2023-03-25T08:42:47;7.20;;;1.53;;
9761;SDS011;4920;49.594;11.022;2023-03-25T08:45:17;5.40;;;1.30;;
9761;SDS011;4920;49.594;11.022;2023-03-25T08:47:46;6.03;;;1.60;;
9761;SDS011;4920;49.594;11.022;2023-03-25T08:50:15;7.00;;;1.43;;
9761;SDS011;4920;49.594;11.022;2023-03-25T08:52:44;7.90;;;1.77;;
9761;SDS011;4920;49.594;11.022;2023-03-25T08:55:13;10.70;;;2.07;;
9761;SDS011;4920;49.594;11.022;2023-03-25T08:57:42;10.13;;;1.83;;
9761;SDS011;4920;49.594;11.022;2023-03-25T09:00:11;4.90;;;1.40;;
9761;SDS011;4920;49.594;11.022;2023-03-25T09:02:42;5.47;;;1.40;;
9761;SDS011;4920;49.594;11.022;2023-03-25T09:05:11;7.13;;;2.00;;
9761;SDS011;4920;49.594;11.022;2023-03-25T09:07:41;5.20;;;1.60;;
9761;SDS011;4920;49.594;11.022;2023-03-25T09:10:10;5.57;;;1.60;;
9761;SDS011;4920;49.594;11.022;2023-03-25T09:12:40;6.93;;;1.37;;
9761;SDS011;4920;49.594;11.022;2023-03-25T09:15:09;8.67;;;1.70;;
9761;SDS011;4920;49.594;11.022;2023-03-25T09:17:39;8.97;;;1.90;;
9761;SDS011;4920;49.594;11.022;2023-03-25T09:20:10;7.33;;;1.57;;
9761;SDS011;4920;49.594;11.022;2023-03-25T09:22:39;8.03;;;1.70;;
9761;SDS011;4920;49.594;11.022;2023-03-25T09:25:08;6.70;;;1.67;;
9761;SDS011;4920;49.594;11.022;2023-03-25T09:27:38;5.93;;;1.63;;
9761;SDS011;4920;49.594;11.022;2023-03-25T09:30:07;3.90;;;1.57;;
9761;SDS011;4920;49.594;11.022;2023-03-25T09:32:36;7.10;;;1.77;;
9761;SDS011;4920;49.594;11.022;2023-03-25T09:35:05;8.27;;;1.63;;
9761;SDS011;4920;49.594;11.022;2023-03-25T09:37:36;3.90;;;1.40;;
9761;SDS011;4920;49.594;11.022;2023-03-25T09:40:05;5.45;;;1.70;;
9761;SDS011;4920;49.594;11.022;2023-03-25T09:42:53;3.53;;;1.27;;
9761;SDS011;4920;49.594;11.022;2023-03-25T09:45:31;6.57;;;1.77;;
9761;SDS011;4920;49.594;11.022;2023-03-25T09:48:04;3.10;;;1.20;;
9761;SDS011;4920;49.594;11.022;2023-03-25T09:50:42;8.25;;;1.45;;
9761;SDS011;4920;49.594;11.022;2023-03-25T09:53:15;5.25;;;1.55;;
9761;SDS011;4920;49.594;11.022;2023-03-25T09:55:53;5.20;;;1.33;;
9761;SDS011;4920;49.594;11.022;2023-03-25T09:58:24;10.35;;;5.05;;
9761;SDS011;4920;49.594;11.022;2023-03-25T10:00:58;6.88;;;2.63;;
9761;SDS011;4920;49.594;11.022;2023-03-25T10:03:31;9.52;;;1.88;;
9761;SDS011;4920;49.594;11.022;2023-03-25T10:06:11;4.70;;;1.30;;
9761;SDS011;4920;49.594;11.022;2023-03-25T10:08:54;2.33;;;1.08;;
9761;SDS011;4920;49.594;11.022;2023-03-25T10:11:38;4.30;;;1.17;;
9761;SDS011;4920;49.594;11.022;2023-03-25T10:14:16;7.68;;;1.40;;
9761;SDS011;4920;49.594;11.022;2023-03-25T10:16:50;5.43;;;1.33;;
9761;SDS011;4920;49.594;11.022;2023-03-25T10:19:37;4.70;;;1.38;;
9761;SDS011;4920;49.594;11.022;2023-03-25T10:22:17;4.75;;;1.25;;
9761;SDS011;4920;49.594;11.022;2023-03-25T10:24:53;6.22;;;1.77;;
9761;SDS011;4920;49.594;11.022;2023-03-25T10:27:26;6.07;;;1.40;;
9761;SDS011;4920;49.594;11.022;2023-03-25T10:30:02;2.63;;;1.20;;
9761;SDS011;4920;49.594;11.022;2023-03-25T10:32:38;3.53;;;1.17;;
9761;SDS011;4920;49.594;11.022;2023-03-25T10:35:10;4.63;;;1.45;;
9761;SDS011;4920;49.594;11.022;2023-03-25T10:37:44;4.75;;;1.20;;
9761;SDS011;4920;49.594;11.022;2023-03-25T10:40:21;2.77;;;1.10;;
9761;SDS011;4920;49.594;11.022;2023-03-25T10:42:56;5.93;;;1.52;;
9761;SDS011;4920;49.594;11.022;2023-03-25T10:45:32;5.50;;;1.60;;
9761;SDS011;4920;49.594;11.022;2023-03-25T10:48:03;4.60;;;1.23;;
9761;SDS011;4920;49.594;11.022;2023-03-25T10:50:37;3.30;;;1.20;;
9761;SDS011;4920;49.594;11.022;2023-03-25T10:53:09;2.30;;;1.10;;
9761;SDS011;4920;49.594;11.022;2023-03-25T10:55:44;8.27;;;1.10;;
9761;SDS011;4920;49.594;11.022;2023-03-25T10:58:18;4.70;;;1.20;;
9761;SDS011;4920;49.594;11.022;2023-03-25T11:00:47;2.27;;;1.00;;
9761;SDS011;4920;49.594;11.022;2023-03-25T11:03:16;2.20;;;1.10;;
9761;SDS011;4920;49.594;11.022;2023-03-25T11:05:48;3.77;;;0.97;;
9761;SDS011;4920;49.594;11.022;2023-03-25T11:08:18;4.10;;;1.00;;
9761;SDS011;4920;49.594;11.022;2023-03-25T11:10:52;2.70;;;1.00;;
9761;SDS011;4920;49.594;11.022;2023-03-25T11:13:28;3.10;;;1.00;;
9761;SDS011;4920;49.594;11.022;2023-03-25T11:15:58;3.87;;;0.90;;
9761;SDS011;4920;49.594;11.022;2023-03-25T11:18:33;2.50;;;1.00;;
9761;SDS011;4920;49.594;11.022;2023-03-25T11:21:07;5.90;;;1.10;;
9761;SDS011;4920;49.594;11.022;2023-03-25T11:23:41;3.30;;;0.90;;
9761;SDS011;4920;49.594;11.022;2023-03-25T11:26:18;1.57;;;0.77;;
9761;SDS011;4920;49.594;11.022;2023-03-25T11:28:50;2.23;;;0.67;;
9761;SDS011;4920;49.594;11.022;2023-03-25T11:31:22;0.93;;;0.60;;
9761;SDS011;4920;49.594;11.022;2023-03-25T11:34:02;1.00;;;0.80;;
9761;SDS011;4920;49.594;11.022;2023-03-25T11:36:33;0.90;;;0.70;;
9761;SDS011;4920;49.594;11.022;2023-03-25T11:39:08;3.53;;;0.80;;
9761;SDS011;4920;49.594;11.022;2023-03-25T11:41:45;1.57;;;0.60;;
9761;SDS011;4920;49.594;11.022;2023-03-25T11:44:17;1.50;;;0.77;;
9761;SDS011;4920;49.594;11.022;2023-03-25T11:46:50;1.47;;;0.73;;
9761;SDS011;4920;49.594;11.022;2023-03-25T11:49:21;2.47;;;0.70;;
9761;SDS011;4920;49.594;11.022;2023-03-25T11:51:55;1.43;;;0.50;;
9761;SDS011;4920;49.594;11.022;2023-03-25T11:54:26;1.30;;;0.53;;
9761;SDS011;4920;49.594;11.022;2023-03-25T11:56:57;1.30;;;0.60;;
9761;SDS011;4920;49.594;11.022;2023-03-25T11:59:27;1.17;;;0.70;;
9761;SDS011;4920;49.594;11.022;2023-03-25T12:02:14;0.57;;;0.50;;
9761;SDS011;4920;49.594;11.022;2023-03-25T12:04:56;1.47;;;0.80;;
9761;SDS011;4920;49.594;11.022;2023-03-25T12:07:27;0.73;;;0.60;;
9761;SDS011;4920;49.594;11.022;2023-03-25T12:09:57;1.23;;;0.60;;
9761;SDS011;4920;49.594;11.022;2023-03-25T12:12:34;1.70;;;0.70;;
9761;SDS011;4920;49.594;11.022;2023-03-25T12:15:14;1.40;;;0.60;;
9761;SDS011;4920;49.594;11.022;2023-03-25T12:17:50;2.20;;;0.70;;
9761;SDS011;4920;49.594;11.022;2023-03-25T12:20:32;3.00;;;0.90;;
9761;SDS011;4920;49.594;11.022;2023-03-25T12:23:11;3.28;;;1.08;;
9761;SDS011;4920;49.594;11.022;2023-03-25T12:25:50;1.33;;;0.90;;
9761;SDS011;4920;49.594;11.022;2023-03-25T12:28:32;2.20;;;0.77;;
9761;SDS011;4920;49.594;11.022;2023-03-25T12:31:15;1.15;;;0.70;;
9761;SDS011;4920;49.594;11.022;2023-03-25T12:34:02;1.88;;;0.80;;
9761;SDS011;4920;49.594;11.022;2023-03-25T12:36:43;1.83;;;0.90;;
9761;SDS011;4920;49.594;11.022;2023-03-25T12:39:22;2.30;;;0.70;;
9761;SDS011;4920;49.594;11.022;2023-03-25T12:42:11;2.22;;;0.90;;
9761;SDS011;4920;49.594;11.022;2023-03-25T12:44:55;3.22;;;1.00;;
9761;SDS011;4920;49.594;11.022;2023-03-25T12:47:33;1.90;;;0.90;;
9761;SDS011;4920;49.594;11.022;2023-03-25T12:50:06;2.47;;;0.98;;
9761;SDS011;4920;49.594;11.022;2023-03-25T12:52:51;2.50;;;0.80;;
9761;SDS011;4920;49.594;11.022;2023-03-25T12:55:27;3.05;;;0.93;;
9761;SDS011;4920;49.594;11.022;2023-03-25T12:58:15;3.78;;;1.00;;
9761;SDS011;4920;49.594;11.022;2023-03-25T13:01:03;1.30;;;0.70;;
9761;SDS011;4920;49.594;11.022;2023-03-25T13:03:45;1.77;;;0.88;;
9761;SDS011;4920;49.594;11.022;2023-03-25T13:06:35;2.85;;;0.80;;
9761;SDS011;4920;49.594;11.022;2023-03-25T13:09:10;1.80;;;0.80;;
9761;SDS011;4920;49.594;11.022;2023-03-25T13:11:44;1.33;;;0.70;;
9761;SDS011;4920;49.594;11.022;2023-03-25T13:14:16;1.73;;;0.80;;
9761;SDS011;4920;49.594;11.022;2023-03-25T13:16:52;4.70;;;0.70;;
9761;SDS011;4920;49.594;11.022;2023-03-25T13:19:26;1.92;;;0.77;;
9761;SDS011;4920;49.594;11.022;2023-03-25T13:21:58;1.00;;;0.50;;
9761;SDS011;4920;49.594;11.022;2023-03-25T13:24:33;0.80;;;0.70;;
9761;SDS011;4920;49.594;11.022;2023-03-25T13:27:06;3.20;;;0.80;;
9761;SDS011;4920;49.594;11.022;2023-03-25T13:29:38;1.93;;;0.90;;
9761;SDS011;4920;49.594;11.022;2023-03-25T13:32:14;1.93;;;0.80;;
9761;SDS011;4920;49.594;11.022;2023-03-25T13:34:48;1.83;;;0.60;;
9761;SDS011;4920;49.594;11.022;2023-03-25T13:37:20;1.80;;;0.67;;
9761;SDS011;4920;49.594;11.022;2023-03-25T13:40:09;2.30;;;0.70;;
9761;SDS011;4920;49.594;11.022;2023-03-25T13:42:51;2.80;;;0.80;;
9761;SDS011;4920;49.594;11.022;2023-03-25T13:45:26;2.37;;;0.67;;
9761;SDS011;4920;49.594;11.022;2023-03-25T13:48:00;1.20;;;0.80;;
9761;SDS011;4920;49.594;11.022;2023-03-25T13:50:37;0.70;;;0.70;;
9761;SDS011;4920;49.594;11.022;2023-03-25T13:53:06;1.03;;;0.80;;
9761;SDS011;4920;49.594;11.022;2023-03-25T13:55:43;3.33;;;0.77;;
9761;SDS011;4920;49.594;11.022;2023-03-25T13:58:18;0.97;;;0.60;;
9761;SDS011;4920;49.594;11.022;2023-03-25T14:01:05;1.60;;;0.77;;
9761;SDS011;4920;49.594;11.022;2023-03-25T14:12:53;2.00;;;0.90;;
9761;SDS011;4920;49.594;11.022;2023-03-25T14:15:26;2.13;;;0.93;;
9761;SDS011;4920;49.594;11.022;2023-03-25T14:17:57;2.23;;;1.10;;
9761;SDS011;4920;49.594;11.022;2023-03-25T14:20:31;3.13;;;1.00;;
9761;SDS011;4920;49.594;11.022;2023-03-25T14:23:02;1.33;;;0.67;;
9761;SDS011;4920;49.594;11.022;2023-03-25T14:25:34;1.60;;;0.80;;
9761;SDS011;4920;49.594;11.022;2023-03-25T14:28:06;1.87;;;0.80;;
9761;SDS011;4920;49.594;11.022;2023-03-25T14:30:39;3.50;;;0.90;;
9761;SDS011;4920;49.594;11.022;2023-03-25T14:33:09;2.23;;;0.63;;
9761;SDS011;4920;49.594;11.022;2023-03-25T14:35:47;2.40;;;0.70;;
9761;SDS011;4920;49.594;11.022;2023-03-25T14:44:19;4.20;;;1.03;;
9761;SDS011;4920;49.594;11.022;2023-03-25T14:46:48;1.47;;;0.90;;
9761;SDS011;4920;49.594;11.022;2023-03-25T14:52:19;2.63;;;0.90;;
9761;SDS011;4920;49.594;11.022;2023-03-25T14:54:54;1.20;;;0.83;;
9761;SDS011;4920;49.594;11.022;2023-03-25T14:57:24;2.87;;;0.97;;
9761;SDS011;4920;49.594;11.022;2023-03-25T14:59:57;1.83;;;1.00;;
9761;SDS011;4920;49.594;11.022;2023-03-25T15:02:35;3.03;;;0.90;;
9761;SDS011;4920;49.594;11.022;2023-03-25T15:05:12;4.20;;;1.00;;
9761;SDS011;4920;49.594;11.022;2023-03-25T15:07:47;3.23;;;1.20;;
9761;SDS011;4920;49.594;11.022;2023-03-25T15:10:19;1.87;;;0.90;;
9761;SDS011;4920;49.594;11.022;2023-03-25T15:12:54;1.93;;;0.90;;
9761;SDS011;4920;49.594;11.022;2023-03-25T15:15:29;1.20;;;0.80;;
9761;SDS011;4920;49.594;11.022;2023-03-25T15:18:03;3.60;;;1.10;;
9761;SDS011;4920;49.594;11.022;2023-03-25T15:20:32;3.03;;;1.07;;
9761;SDS011;4920;49.594;11.022;2023-03-25T15:23:27;3.40;;;1.00;;
9761;SDS011;4920;49.594;11.022;2023-03-25T15:26:02;1.93;;;0.90;;
9761;SDS011;4920;49.594;11.022;2023-03-25T15:31:42;2.70;;;1.10;;
9761;SDS011;4920;49.594;11.022;2023-03-25T15:37:23;2.67;;;0.90;;
9761;SDS011;4920;49.594;11.022;2023-03-25T15:40:24;3.53;;;1.10;;
9761;SDS011;4920;49.594;11.022;2023-03-25T15:49:53;2.27;;;1.00;;
9761;SDS011;4920;49.594;11.022;2023-03-25T15:56:10;5.43;;;1.03;;
9761;SDS011;4920;49.594;11.022;2023-03-25T15:58:46;3.53;;;1.00;;
9761;SDS011;4920;49.594;11.022;2023-03-25T16:01:19;3.20;;;1.10;;
9761;SDS011;4920;49.594;11.022;2023-03-25T16:03:56;3.57;;;1.00;;
9761;SDS011;4920;49.594;11.022;2023-03-25T16:06:27;4.80;;;0.90;;
9761;SDS011;4920;49.594;11.022;2023-03-25T16:08:58;1.77;;;0.80;;
9761;SDS011;4920;49.594;11.022;2023-03-25T16:11:30;3.37;;;1.10;;
9761;SDS011;4920;49.594;11.022;2023-03-25T16:14:00;4.77;;;1.10;;
9761;SDS011;4920;49.594;11.022;2023-03-25T16:16:34;4.80;;;1.30;;
9761;SDS011;4920;49.594;11.022;2023-03-25T16:19:07;2.67;;;1.00;;
9761;SDS011;4920;49.594;11.022;2023-03-25T16:21:41;3.70;;;1.30;;
9761;SDS011;4920;49.594;11.022;2023-03-25T16:24:10;3.93;;;1.20;;
9761;SDS011;4920;49.594;11.022;2023-03-25T16:26:42;3.10;;;1.10;;